createdAt,value
2023-05-24T00:00:09.694Z,15.65
2023-05-24T00:02:38.111Z,15.61
2023-05-24T00:05:08.177Z,15.56
2023-05-24T00:07:37.135Z,15.51
2023-05-24T00:10:08.734Z,15.38
2023-05-24T00:12:36.272Z,15.20
2023-05-24T00:15:04.416Z,15.24
2023-05-24T00:17:32.333Z,15.23
2023-05-24T00:19:59.963Z,15.16
2023-05-24T00:22:27.524Z,15.16
2023-05-24T00:24:55.109Z,15.08
2023-05-24T00:27:22.628Z,15.26
2023-05-24T00:29:50.112Z,15.26
2023-05-24T00:32:17.645Z,15.18
2023-05-24T00:34:45.156Z,15.32
2023-05-24T00:37:13.021Z,15.20
2023-05-24T00:39:41.357Z,15.13
2023-05-24T00:42:08.979Z,15.06
2023-05-24T00:44:36.586Z,14.95
2023-05-24T00:47:04.591Z,14.97
2023-05-24T00:49:33.049Z,14.88
2023-05-24T00:52:01.398Z,14.86
2023-05-24T00:54:30.449Z,14.89
2023-05-24T00:56:58.518Z,14.84
2023-05-24T00:59:27.440Z,14.79
2023-05-24T01:01:55.695Z,14.82
2023-05-24T01:04:23.697Z,14.87
2023-05-24T01:07:11.049Z,14.99
2023-05-24T01:10:02.189Z,15.06
2023-05-24T01:12:53.882Z,15.13
2023-05-24T01:15:47.493Z,15.04
2023-05-24T01:18:26.337Z,14.99
2023-05-24T01:21:14.791Z,15.08
2023-05-24T01:24:13.867Z,15.00
2023-05-24T01:27:08.188Z,15.03
2023-05-24T01:29:37.062Z,14.99
2023-05-24T01:32:05.951Z,14.99
2023-05-24T01:34:33.589Z,15.00
2023-05-24T01:37:01.070Z,15.11
2023-05-24T01:39:31.051Z,15.18
2023-05-24T01:42:15.624Z,15.33
2023-05-24T01:45:05.161Z,15.34
2023-05-24T01:47:50.794Z,15.26
2023-05-24T01:50:29.845Z,14.98
2023-05-24T01:53:09.577Z,14.94
2023-05-24T01:55:38.952Z,14.98
2023-05-24T01:58:08.755Z,14.95
2023-05-24T02:00:36.600Z,14.97
2023-05-24T02:03:06.388Z,14.82
2023-05-24T02:05:34.226Z,14.84
2023-05-24T02:08:06.573Z,14.90
2023-05-24T02:10:34.069Z,14.89
2023-05-24T02:13:01.653Z,15.07
2023-05-24T02:15:30.539Z,14.96
2023-05-24T02:17:59.266Z,14.87
2023-05-24T02:20:28.627Z,14.76
2023-05-24T02:22:56.549Z,14.62
2023-05-24T02:25:27.124Z,14.48
2023-05-24T02:27:54.705Z,14.39
2023-05-24T02:30:22.177Z,14.28
2023-05-24T02:32:49.757Z,14.11
2023-05-24T02:35:17.456Z,14.09
2023-05-24T02:37:45.107Z,13.99
2023-05-24T02:40:13.589Z,14.08
2023-05-24T02:42:41.420Z,14.09
2023-05-24T02:45:09.470Z,14.17
2023-05-24T02:47:37.034Z,14.29
2023-05-24T02:50:05.012Z,14.29
2023-05-24T02:52:33.178Z,14.15
2023-05-24T02:55:00.872Z,14.12
2023-05-24T02:57:28.924Z,14.24
2023-05-24T02:59:56.482Z,14.30
2023-05-24T03:02:24.467Z,14.36
2023-05-24T03:04:52.895Z,14.22
2023-05-24T03:07:20.507Z,14.19
2023-05-24T03:09:48.047Z,14.19
2023-05-24T03:12:15.851Z,14.23
2023-05-24T03:14:43.575Z,14.21
2023-05-24T03:17:11.952Z,14.30
2023-05-24T03:19:39.546Z,14.26
2023-05-24T03:22:07.089Z,14.33
2023-05-24T03:24:38.546Z,14.25
2023-05-24T03:27:08.807Z,14.18
2023-05-24T03:29:36.429Z,14.26
2023-05-24T03:32:04.743Z,14.30
2023-05-24T03:34:32.412Z,14.41
2023-05-24T03:37:00.374Z,14.67
2023-05-24T03:39:28.373Z,14.81
2023-05-24T03:42:03.626Z,15.18
2023-05-24T03:44:32.376Z,15.11
2023-05-24T03:47:00.470Z,15.04
2023-05-24T03:49:28.800Z,15.05
2023-05-24T03:51:56.462Z,14.73
2023-05-24T03:54:24.033Z,14.66
2023-05-24T03:56:53.552Z,14.54
2023-05-24T03:59:22.536Z,14.51
2023-05-24T04:01:50.193Z,14.43
2023-05-24T04:04:18.008Z,14.43
2023-05-24T04:06:45.595Z,14.60
2023-05-24T04:09:14.900Z,14.87
2023-05-24T04:11:42.700Z,14.91
2023-05-24T04:14:12.553Z,14.84
2023-05-24T04:16:41.742Z,15.06
2023-05-24T04:19:09.405Z,15.21
2023-05-24T04:21:38.346Z,15.33
2023-05-24T04:24:07.200Z,15.30
2023-05-24T04:26:37.888Z,15.43
2023-05-24T04:29:05.637Z,15.56
2023-05-24T04:31:34.633Z,15.62
2023-05-24T04:34:03.422Z,15.73
2023-05-24T04:36:34.012Z,15.81
2023-05-24T04:39:04.871Z,15.87
2023-05-24T04:41:32.538Z,16.02
2023-05-24T04:44:00.169Z,16.13
2023-05-24T04:46:27.857Z,16.26
2023-05-24T04:48:55.488Z,16.46
2023-05-24T04:51:23.633Z,16.43
2023-05-24T04:53:51.261Z,16.66
2023-05-24T04:56:20.155Z,16.64
2023-05-24T04:58:48.797Z,16.70
2023-05-24T05:01:16.341Z,16.80
2023-05-24T05:03:46.215Z,16.83
2023-05-24T05:06:13.962Z,16.94
2023-05-24T05:08:41.597Z,16.89
2023-05-24T05:11:09.496Z,16.82
2023-05-24T05:13:37.032Z,16.89
2023-05-24T05:16:05.466Z,16.85
2023-05-24T05:18:34.057Z,17.10
2023-05-24T05:21:03.178Z,17.03
2023-05-24T05:23:31.388Z,16.95
2023-05-24T05:25:59.081Z,16.85
2023-05-24T05:28:26.614Z,17.01
2023-05-24T05:30:54.175Z,17.09
2023-05-24T05:33:21.716Z,17.03
2023-05-24T05:35:49.333Z,17.14
2023-05-24T05:38:17.092Z,17.37
2023-05-24T05:40:44.754Z,17.66
2023-05-24T05:43:12.398Z,17.71
2023-05-24T05:45:40.378Z,17.67
2023-05-24T05:48:08.133Z,17.78
2023-05-24T05:50:35.716Z,18.07
2023-05-24T05:53:03.692Z,17.93
2023-05-24T05:55:31.274Z,18.05
2023-05-24T05:57:58.832Z,18.25
2023-05-24T06:00:26.678Z,18.38
2023-05-24T06:02:54.336Z,18.64
2023-05-24T06:05:22.178Z,18.69
2023-05-24T06:07:49.884Z,18.67
2023-05-24T06:10:17.612Z,18.63
2023-05-24T06:12:45.196Z,18.66
2023-05-24T06:15:14.198Z,18.74
2023-05-24T06:17:43.860Z,18.82
2023-05-24T06:20:17.801Z,19.40
2023-05-24T06:22:46.380Z,19.59
2023-05-24T06:25:15.502Z,19.56
2023-05-24T06:27:44.014Z,19.96
2023-05-24T06:30:13.521Z,19.99
2023-05-24T06:32:41.325Z,20.03
2023-05-24T06:35:09.665Z,20.04
2023-05-24T06:37:38.724Z,19.94
2023-05-24T06:40:11.457Z,20.19
2023-05-24T06:42:40.918Z,20.47
2023-05-24T06:45:09.463Z,20.49
2023-05-24T06:47:37.298Z,20.58
2023-05-24T06:50:05.564Z,20.44
2023-05-24T06:52:34.346Z,20.53
2023-05-24T06:55:01.899Z,21.01
2023-05-24T06:57:29.488Z,20.86
2023-05-24T06:59:57.343Z,20.97
2023-05-24T07:02:27.675Z,21.30
2023-05-24T07:04:55.721Z,21.00
2023-05-24T07:07:23.380Z,21.05
2023-05-24T07:09:51.187Z,21.23
2023-05-24T07:12:18.822Z,21.35
2023-05-24T07:14:47.753Z,21.58
2023-05-24T07:17:15.410Z,21.72
2023-05-24T07:19:43.004Z,21.72
2023-05-24T07:22:11.188Z,21.65
2023-05-24T07:24:39.056Z,22.02
2023-05-24T07:27:06.677Z,22.30
2023-05-24T07:29:34.297Z,22.51
2023-05-24T07:32:01.879Z,22.26
2023-05-24T07:34:30.280Z,22.33
2023-05-24T07:37:00.733Z,22.41
2023-05-24T07:39:28.950Z,22.57
2023-05-24T07:41:56.720Z,22.58
2023-05-24T07:44:24.365Z,22.84
2023-05-24T07:46:52.216Z,23.01
2023-05-24T07:49:20.096Z,23.11
2023-05-24T07:51:48.201Z,23.42
2023-05-24T07:54:16.143Z,23.43
2023-05-24T07:56:43.748Z,23.53
2023-05-24T07:59:11.483Z,23.64
2023-05-24T08:01:38.970Z,23.70
2023-05-24T08:04:08.858Z,24.05
2023-05-24T08:06:36.937Z,24.08
2023-05-24T08:09:05.347Z,24.26
2023-05-24T08:11:32.892Z,24.08
2023-05-24T08:14:00.495Z,23.92
2023-05-24T08:16:28.108Z,24.03
2023-05-24T08:18:55.733Z,23.97
2023-05-24T08:21:23.698Z,24.32
2023-05-24T08:23:51.307Z,24.38
2023-05-24T08:26:20.927Z,25.05
2023-05-24T08:28:48.944Z,25.03
2023-05-24T08:31:17.088Z,24.98
2023-05-24T08:33:45.708Z,24.78
2023-05-24T08:36:13.271Z,24.83
2023-05-24T08:38:40.751Z,24.89
2023-05-24T08:41:08.559Z,25.18
2023-05-24T08:43:36.192Z,25.44
2023-05-24T08:46:05.948Z,25.30
2023-05-24T08:48:36.512Z,25.02
2023-05-24T08:51:04.401Z,25.25
2023-05-24T08:53:34.190Z,25.41
2023-05-24T08:56:01.952Z,25.77
2023-05-24T08:58:30.572Z,25.93
2023-05-24T09:00:59.727Z,26.52
2023-05-24T09:03:28.108Z,26.58
2023-05-24T09:05:56.051Z,26.54
2023-05-24T09:08:23.819Z,26.64
2023-05-24T09:10:55.352Z,26.53
2023-05-24T09:13:25.286Z,26.42
2023-05-24T09:15:54.486Z,27.23
2023-05-24T09:18:22.037Z,26.81
2023-05-24T09:20:49.773Z,26.83
2023-05-24T09:23:18.476Z,26.70
2023-05-24T09:25:47.474Z,26.88
2023-05-24T09:28:18.243Z,27.39
2023-05-24T09:31:08.049Z,27.35
2023-05-24T09:33:36.606Z,27.48
2023-05-24T09:36:07.143Z,27.57
2023-05-24T09:38:36.769Z,27.68
2023-05-24T09:41:08.867Z,27.38
2023-05-24T09:43:49.712Z,27.61
2023-05-24T09:46:20.073Z,27.77
2023-05-24T09:49:03.697Z,27.80
2023-05-24T09:51:31.392Z,27.72
2023-05-24T09:54:03.736Z,27.36
2023-05-24T09:56:34.104Z,27.24
2023-05-24T09:59:10.475Z,26.98
2023-05-24T10:01:38.498Z,27.10
2023-05-24T10:04:10.027Z,26.87
2023-05-24T10:06:40.177Z,26.47
2023-05-24T10:09:10.057Z,26.53
2023-05-24T10:11:38.417Z,26.72
2023-05-24T10:14:07.461Z,26.50
2023-05-24T10:16:37.275Z,26.42
2023-05-24T10:19:07.412Z,26.73
2023-05-24T10:21:39.002Z,26.93
2023-05-24T10:24:09.214Z,26.89
2023-05-24T10:26:40.084Z,26.56
2023-05-24T10:29:14.539Z,26.47
2023-05-24T10:31:43.491Z,26.72
2023-05-24T10:34:11.606Z,26.74
2023-05-24T10:36:41.530Z,26.74
2023-05-24T10:39:12.732Z,26.82
2023-05-24T10:41:42.192Z,27.06
2023-05-24T10:44:18.736Z,27.44
2023-05-24T10:47:10.145Z,27.26
2023-05-24T10:50:00.262Z,27.26
2023-05-24T10:52:37.518Z,27.19
2023-05-24T10:55:09.551Z,27.60
2023-05-24T10:57:39.057Z,28.13
2023-05-24T11:00:35.426Z,28.36
2023-05-24T11:03:23.510Z,28.97
2023-05-24T11:05:59.291Z,29.17
2023-05-24T11:08:33.401Z,28.96
2023-05-24T11:11:31.188Z,28.57
2023-05-24T11:14:01.841Z,28.45
2023-05-24T11:16:40.967Z,28.25
2023-05-24T11:19:18.830Z,28.15
2023-05-24T11:21:53.455Z,27.96
2023-05-24T11:24:22.335Z,28.02
2023-05-24T11:26:51.552Z,28.18
2023-05-24T11:29:23.356Z,28.39
2023-05-24T11:31:57.853Z,28.93
2023-05-24T11:34:27.439Z,29.51
2023-05-24T11:36:55.483Z,29.69
2023-05-24T11:39:27.045Z,29.91
2023-05-24T11:41:55.143Z,29.55
2023-05-24T11:44:23.859Z,29.67
2023-05-24T11:47:00.745Z,29.74
2023-05-24T11:49:28.967Z,29.68
2023-05-24T11:51:58.036Z,29.67
2023-05-24T11:54:27.683Z,29.97
2023-05-24T11:56:55.750Z,30.38
2023-05-24T11:59:29.076Z,30.31
2023-05-24T12:02:05.630Z,30.38
2023-05-24T12:04:37.292Z,30.27
2023-05-24T12:07:05.700Z,29.72
2023-05-24T12:09:33.625Z,29.32
2023-05-24T12:12:30.292Z,29.60
2023-05-24T12:15:01.875Z,29.91
2023-05-24T12:17:29.472Z,30.44
2023-05-24T12:19:57.218Z,30.69
2023-05-24T12:22:30.872Z,30.75
2023-05-24T12:24:59.412Z,30.67
2023-05-24T12:27:30.852Z,31.16
2023-05-24T12:30:10.007Z,30.87
2023-05-24T12:32:37.631Z,31.08
2023-05-24T12:35:09.262Z,31.24
2023-05-24T12:37:36.800Z,30.71
2023-05-24T12:40:14.293Z,30.72
2023-05-24T12:42:43.229Z,30.32
2023-05-24T12:45:13.853Z,30.28
2023-05-24T12:47:43.201Z,30.25
2023-05-24T12:50:11.623Z,30.42
2023-05-24T12:52:39.122Z,30.66
2023-05-24T12:55:10.366Z,30.78
2023-05-24T12:57:38.486Z,30.78
2023-05-24T13:00:27.283Z,31.10
2023-05-24T13:03:01.238Z,31.22
2023-05-24T13:05:30.128Z,31.19
2023-05-24T13:07:58.668Z,31.08
2023-05-24T13:10:26.561Z,31.29
2023-05-24T13:12:54.312Z,31.05
2023-05-24T13:15:24.073Z,30.76
2023-05-24T13:17:51.717Z,30.93
2023-05-24T13:20:24.160Z,30.98
2023-05-24T13:22:53.864Z,30.02
2023-05-24T13:25:22.651Z,29.66
2023-05-24T13:27:50.436Z,29.62
2023-05-24T13:30:18.020Z,28.74
2023-05-24T13:32:48.735Z,27.93
2023-05-24T13:35:16.756Z,27.50
2023-05-24T13:37:44.436Z,27.25
2023-05-24T13:40:12.396Z,26.79
2023-05-24T13:42:40.437Z,26.42
2023-05-24T13:45:09.076Z,26.28
2023-05-24T13:47:40.876Z,26.21
2023-05-24T13:50:10.338Z,25.92
2023-05-24T13:52:38.406Z,25.89
2023-05-24T13:55:06.820Z,25.85
2023-05-24T13:57:50.382Z,25.80
2023-05-24T14:00:20.519Z,26.01
2023-05-24T14:02:51.829Z,25.92
2023-05-24T14:05:26.643Z,26.33
2023-05-24T14:07:56.308Z,26.17
2023-05-24T14:10:24.481Z,26.20
2023-05-24T14:13:11.828Z,26.19
2023-05-24T14:15:44.966Z,26.27
2023-05-24T14:18:14.323Z,26.09
2023-05-24T14:20:44.252Z,25.88
2023-05-24T14:23:12.988Z,25.84
2023-05-24T14:25:46.548Z,25.89
2023-05-24T14:28:14.643Z,26.13
2023-05-24T14:30:42.314Z,26.04
2023-05-24T14:33:11.997Z,25.89
2023-05-24T14:35:40.235Z,25.87
2023-05-24T14:38:10.682Z,25.96
2023-05-24T14:40:42.743Z,25.98
2023-05-24T14:43:13.912Z,25.72
2023-05-24T14:45:48.298Z,25.77
2023-05-24T14:48:17.530Z,25.79
2023-05-24T14:50:46.875Z,25.85
2023-05-24T14:53:18.640Z,25.77
2023-05-24T14:55:49.639Z,25.98
2023-05-24T14:58:17.264Z,26.29
2023-05-24T15:00:47.942Z,26.78
2023-05-24T15:03:18.670Z,26.98
2023-05-24T15:05:49.135Z,26.72
2023-05-24T15:08:16.916Z,26.56
2023-05-24T15:10:45.993Z,26.47
2023-05-24T15:13:14.098Z,26.15
2023-05-24T15:15:45.768Z,25.96
2023-05-24T15:18:13.570Z,25.68
2023-05-24T15:20:43.508Z,25.21
2023-05-24T15:23:13.373Z,25.21
2023-05-24T15:25:42.856Z,25.14
2023-05-24T15:28:12.916Z,24.98
2023-05-24T15:30:44.456Z,25.13
2023-05-24T15:33:13.661Z,25.15
2023-05-24T15:35:41.651Z,24.92
2023-05-24T15:38:09.279Z,24.91
2023-05-24T15:40:38.567Z,24.58
2023-05-24T15:43:08.313Z,24.50
2023-05-24T15:45:38.089Z,24.42
2023-05-24T15:48:05.869Z,24.48
2023-05-24T15:50:49.333Z,24.36
2023-05-24T15:53:25.404Z,24.46
2023-05-24T15:55:55.650Z,24.41
2023-05-24T15:58:23.237Z,24.50
2023-05-24T16:00:53.496Z,24.45
2023-05-24T16:03:26.853Z,24.58
2023-05-24T16:05:55.211Z,24.38
2023-05-24T16:08:27.804Z,24.20
2023-05-24T16:10:56.398Z,24.13
2023-05-24T16:13:28.364Z,24.05
2023-05-24T16:15:56.257Z,24.02
2023-05-24T16:18:23.902Z,23.83
2023-05-24T16:20:52.093Z,24.04
2023-05-24T16:23:28.589Z,23.92
2023-05-24T16:25:56.899Z,23.72
2023-05-24T16:28:25.152Z,23.70
2023-05-24T16:30:56.080Z,23.89
2023-05-24T16:33:25.200Z,23.57
2023-05-24T16:35:58.178Z,23.70
2023-05-24T16:38:27.018Z,23.63
2023-05-24T16:40:55.809Z,23.42
2023-05-24T16:43:24.033Z,23.42
2023-05-24T16:45:51.989Z,23.40
2023-05-24T16:48:21.981Z,23.63
2023-05-24T16:50:51.677Z,23.17
2023-05-24T16:53:22.947Z,23.29
2023-05-24T16:55:53.910Z,23.04
2023-05-24T16:58:28.085Z,22.85
2023-05-24T17:00:57.428Z,22.32
2023-05-24T17:03:30.661Z,21.97
2023-05-24T17:06:05.228Z,21.99
2023-05-24T17:08:38.045Z,21.80
2023-05-24T17:11:26.093Z,21.62
2023-05-24T17:13:53.613Z,21.59
2023-05-24T17:16:21.998Z,21.54
2023-05-24T17:18:51.152Z,21.54
2023-05-24T17:21:18.781Z,21.50
2023-05-24T17:23:48.738Z,21.47
2023-05-24T17:26:18.321Z,21.39
2023-05-24T17:28:47.371Z,21.40
2023-05-24T17:31:18.264Z,21.37
2023-05-24T17:33:46.321Z,21.42
2023-05-24T17:36:17.712Z,21.31
2023-05-24T17:38:49.782Z,21.25
2023-05-24T17:41:17.706Z,21.18
2023-05-24T17:43:46.767Z,21.07
2023-05-24T17:46:14.573Z,21.02
2023-05-24T17:48:45.561Z,20.94
2023-05-24T17:51:20.827Z,20.94
2023-05-24T17:53:51.461Z,20.88
2023-05-24T17:56:23.580Z,20.77
2023-05-24T17:58:51.543Z,20.72
2023-05-24T18:01:19.650Z,20.64
2023-05-24T18:03:53.605Z,20.55
2023-05-24T18:06:21.297Z,20.49
2023-05-24T18:08:48.831Z,20.41
2023-05-24T18:11:16.456Z,20.38
2023-05-24T18:14:04.564Z,20.37
2023-05-24T18:16:32.258Z,20.32
2023-05-24T18:18:59.885Z,20.25
2023-05-24T18:21:48.467Z,20.27
2023-05-24T18:24:16.565Z,20.17
2023-05-24T18:26:47.230Z,20.23
2023-05-24T18:29:17.030Z,20.18
2023-05-24T18:31:46.280Z,20.13
2023-05-24T18:34:14.371Z,20.10
2023-05-24T18:36:43.852Z,20.02
2023-05-24T18:39:11.438Z,20.09
2023-05-24T18:41:39.506Z,20.03
2023-05-24T18:44:08.227Z,19.95
2023-05-24T18:46:38.199Z,19.93
2023-05-24T18:49:10.928Z,19.98
2023-05-24T18:51:39.228Z,19.86
2023-05-24T18:54:06.864Z,19.92
2023-05-24T18:56:37.981Z,19.87
2023-05-24T18:59:09.474Z,19.83
2023-05-24T19:01:38.607Z,19.75
2023-05-24T19:04:06.284Z,19.67
2023-05-24T19:06:34.232Z,19.65
2023-05-24T19:09:04.379Z,19.62
2023-05-24T19:11:31.954Z,19.59
2023-05-24T19:13:59.529Z,19.57
2023-05-24T19:16:27.644Z,19.61
2023-05-24T19:18:56.256Z,19.55
2023-05-24T19:21:24.788Z,19.57
2023-05-24T19:23:52.613Z,19.54
2023-05-24T19:26:24.004Z,19.45
2023-05-24T19:28:56.639Z,19.38
2023-05-24T19:31:25.832Z,19.27
2023-05-24T19:34:00.675Z,19.32
2023-05-24T19:36:32.928Z,19.37
2023-05-24T19:39:01.650Z,19.23
2023-05-24T19:41:29.349Z,19.19
2023-05-24T19:44:00.435Z,19.17
2023-05-24T19:46:28.726Z,19.18
2023-05-24T19:48:58.181Z,19.06
2023-05-24T19:51:27.177Z,19.04
2023-05-24T19:53:56.568Z,18.98
2023-05-24T19:56:24.183Z,18.93
2023-05-24T19:59:11.684Z,18.97
2023-05-24T20:01:42.992Z,18.95
2023-05-24T20:04:12.264Z,18.98
2023-05-24T20:06:41.683Z,18.87
2023-05-24T20:09:10.358Z,18.82
2023-05-24T20:11:39.399Z,18.76
2023-05-24T20:14:07.483Z,18.78
2023-05-24T20:16:35.153Z,18.74
2023-05-24T20:19:03.136Z,18.76
2023-05-24T20:21:31.313Z,18.68
2023-05-24T20:23:59.987Z,18.65
2023-05-24T20:26:29.341Z,18.52
2023-05-24T20:28:57.142Z,18.49
2023-05-24T20:31:26.015Z,18.37
2023-05-24T20:33:56.072Z,18.33
2023-05-24T20:36:23.823Z,18.30
2023-05-24T20:38:52.967Z,18.18
2023-05-24T20:41:21.956Z,18.05
2023-05-24T20:43:51.521Z,18.06
2023-05-24T20:46:19.340Z,18.04
2023-05-24T20:48:46.884Z,17.99
2023-05-24T20:51:14.456Z,17.90
2023-05-24T20:53:41.964Z,17.91
2023-05-24T20:56:09.515Z,17.89
2023-05-24T20:58:37.208Z,17.91
2023-05-24T21:01:04.903Z,17.82
2023-05-24T21:03:32.468Z,17.81
2023-05-24T21:05:59.955Z,17.90
2023-05-24T21:08:27.510Z,17.68
2023-05-24T21:10:57.482Z,17.69
2023-05-24T21:13:25.659Z,17.73
2023-05-24T21:15:55.063Z,17.65
2023-05-24T21:18:22.935Z,17.67
2023-05-24T21:20:51.837Z,17.70
2023-05-24T21:23:19.918Z,17.67
2023-05-24T21:25:49.871Z,17.72
2023-05-24T21:28:17.774Z,17.62
2023-05-24T21:30:45.359Z,17.59
2023-05-24T21:33:13.055Z,17.51
2023-05-24T21:35:41.092Z,17.51
2023-05-24T21:38:08.925Z,17.57
2023-05-24T21:40:37.567Z,17.57
2023-05-24T21:43:09.680Z,17.62
2023-05-24T21:45:37.256Z,17.72
2023-05-24T21:48:07.293Z,17.62
2023-05-24T21:50:35.941Z,17.50
2023-05-24T21:53:05.400Z,17.47
2023-05-24T21:55:33.120Z,17.40
2023-05-24T21:58:01.202Z,17.22
2023-05-24T22:00:29.810Z,17.22
2023-05-24T22:03:17.832Z,17.83
2023-05-24T22:05:45.644Z,17.63
2023-05-24T22:08:13.383Z,17.45
2023-05-24T22:10:44.927Z,17.31
2023-05-24T22:13:12.641Z,17.10
2023-05-24T22:15:40.165Z,16.95
2023-05-24T22:18:08.768Z,16.91
2023-05-24T22:20:36.876Z,16.82
2023-05-24T22:23:04.440Z,16.78
2023-05-24T22:25:31.936Z,16.77
2023-05-24T22:27:59.470Z,16.82
2023-05-24T22:30:27.150Z,16.86
2023-05-24T22:32:55.886Z,16.87
2023-05-24T22:35:23.561Z,16.83
2023-05-24T22:37:52.322Z,16.67
2023-05-24T22:40:20.988Z,16.76
2023-05-24T22:42:48.521Z,16.81
2023-05-24T22:45:18.638Z,16.96
2023-05-24T22:47:51.790Z,16.94
2023-05-24T22:50:21.029Z,16.81
2023-05-24T22:52:48.646Z,16.83
2023-05-24T22:55:16.299Z,16.83
2023-05-24T22:57:43.834Z,16.82
2023-05-24T23:00:13.018Z,16.91
2023-05-24T23:02:40.583Z,16.88
2023-05-24T23:05:09.566Z,16.87
2023-05-24T23:07:38.124Z,16.79
2023-05-24T23:10:06.299Z,16.73
2023-05-24T23:12:34.269Z,16.66
2023-05-24T23:15:01.912Z,16.55
2023-05-24T23:17:29.513Z,16.50
2023-05-24T23:19:57.242Z,16.49
2023-05-24T23:22:26.277Z,16.45
2023-05-24T23:24:53.812Z,16.42
2023-05-24T23:27:21.396Z,16.40
2023-05-24T23:29:48.992Z,16.36
2023-05-24T23:32:17.731Z,16.37
2023-05-24T23:34:45.225Z,16.47
2023-05-24T23:37:12.862Z,16.37
2023-05-24T23:39:40.404Z,16.39
2023-05-24T23:42:08.051Z,16.40
2023-05-24T23:44:36.278Z,16.36
2023-05-24T23:47:04.167Z,16.26
2023-05-24T23:49:31.848Z,16.18
2023-05-24T23:51:59.767Z,16.23
2023-05-24T23:54:27.280Z,16.23
2023-05-24T23:56:54.789Z,16.25
2023-05-24T23:59:23.672Z,16.05
